createdAt,value
2022-12-25T00:02:27.216Z,78.20
2022-12-25T00:04:54.095Z,78.40
2022-12-25T00:07:20.908Z,78.20
2022-12-25T00:09:47.741Z,78.10
2022-12-25T00:12:14.771Z,78.00
2022-12-25T00:14:41.685Z,78.00
2022-12-25T00:17:08.566Z,77.90
2022-12-25T00:19:35.460Z,77.90
2022-12-25T00:22:02.307Z,77.80
2022-12-25T00:24:29.413Z,77.80
2022-12-25T00:26:56.198Z,77.70
2022-12-25T00:29:23.148Z,77.70
2022-12-25T00:31:50.079Z,77.70
2022-12-25T00:34:16.928Z,77.60
2022-12-25T00:36:43.768Z,77.70
2022-12-25T00:39:10.811Z,77.70
2022-12-25T00:41:56.112Z,77.70
2022-12-25T00:44:22.951Z,77.80
2022-12-25T00:46:49.808Z,77.70
2022-12-25T00:49:16.682Z,77.80
2022-12-25T00:51:43.497Z,77.70
2022-12-25T00:54:10.376Z,77.70
2022-12-25T00:56:37.165Z,77.60
2022-12-25T00:59:04.028Z,77.60
2022-12-25T01:01:31.077Z,77.70
2022-12-25T01:03:58.209Z,77.60
2022-12-25T01:06:25.532Z,77.70
2022-12-25T01:09:11.503Z,77.60
2022-12-25T01:11:38.408Z,77.60
2022-12-25T01:14:05.353Z,77.60
2022-12-25T01:16:32.236Z,77.60
2022-12-25T01:18:59.447Z,77.50
2022-12-25T01:21:26.564Z,77.50
2022-12-25T01:23:54.296Z,77.50
2022-12-25T01:26:22.901Z,77.40
2022-12-25T01:28:50.469Z,77.30
2022-12-25T01:31:19.723Z,77.30
2022-12-25T01:33:47.507Z,77.30
2022-12-25T01:36:25.723Z,77.30
2022-12-25T01:38:54.185Z,77.30
2022-12-25T01:41:23.635Z,77.20
2022-12-25T01:44:04.536Z,78.00
2022-12-25T01:46:32.462Z,77.10
2022-12-25T01:49:11.972Z,77.10
2022-12-25T01:52:00.908Z,77.00
2022-12-25T01:54:36.627Z,77.00
2022-12-25T01:57:08.536Z,76.90
2022-12-25T01:59:35.489Z,76.90
2022-12-25T02:02:03.112Z,76.90
2022-12-25T02:04:40.430Z,76.80
2022-12-25T02:07:14.880Z,76.80
2022-12-25T02:09:42.164Z,76.80
2022-12-25T02:12:15.840Z,76.90
2022-12-25T02:14:43.090Z,76.70
2022-12-25T02:17:47.477Z,76.70
2022-12-25T02:20:20.813Z,76.50
2022-12-25T02:23:12.508Z,76.70
2022-12-25T02:25:58.848Z,76.80
2022-12-25T02:28:32.501Z,76.70
2022-12-25T02:31:10.597Z,76.70
2022-12-25T02:34:04.288Z,76.60
2022-12-25T02:36:51.312Z,76.60
2022-12-25T02:39:50.290Z,76.50
2022-12-25T02:42:45.651Z,76.70
2022-12-25T02:45:36.522Z,76.70
2022-12-25T02:48:23.383Z,76.60
2022-12-25T02:51:09.972Z,76.40
2022-12-25T02:53:58.951Z,76.50
2022-12-25T02:56:46.948Z,76.40
2022-12-25T02:59:35.362Z,76.40
2022-12-25T03:02:22.557Z,76.40
2022-12-25T03:05:09.643Z,76.30
2022-12-25T03:07:41.007Z,76.40
2022-12-25T03:10:29.422Z,76.40
2022-12-25T03:13:11.745Z,76.40
2022-12-25T03:15:57.155Z,76.30
2022-12-25T03:18:26.759Z,76.30
2022-12-25T03:21:12.970Z,76.30
2022-12-25T03:24:02.256Z,76.20
2022-12-25T03:26:48.352Z,76.20
2022-12-25T03:29:35.107Z,76.30
2022-12-25T03:32:26.150Z,76.40
2022-12-25T03:35:25.624Z,76.30
2022-12-25T03:38:32.176Z,76.20
2022-12-25T03:41:42.937Z,76.20
2022-12-25T03:44:53.653Z,76.30
2022-12-25T03:47:56.768Z,76.20
2022-12-25T03:50:55.441Z,76.20
2022-12-25T03:54:04.747Z,76.30
2022-12-25T03:56:52.492Z,76.40
2022-12-25T03:59:39.627Z,76.40
2022-12-25T04:02:24.985Z,76.40
2022-12-25T04:05:10.320Z,76.50
2022-12-25T04:07:55.723Z,76.60
2022-12-25T04:10:41.322Z,76.60
2022-12-25T04:13:26.841Z,76.70
2022-12-25T04:16:13.045Z,76.70
2022-12-25T04:18:58.481Z,76.70
2022-12-25T04:21:43.976Z,76.70
2022-12-25T04:24:30.258Z,76.80
2022-12-25T04:27:16.056Z,76.80
2022-12-25T04:30:01.592Z,76.90
2022-12-25T04:32:46.968Z,77.00
2022-12-25T04:35:32.333Z,77.10
2022-12-25T04:37:59.163Z,77.00
2022-12-25T04:40:26.129Z,77.10
2022-12-25T04:42:53.086Z,77.10
2022-12-25T04:45:20.149Z,77.10
2022-12-25T04:47:46.980Z,77.10
2022-12-25T04:50:13.985Z,77.10
2022-12-25T04:52:41.648Z,77.10
2022-12-25T04:55:10.341Z,77.10
2022-12-25T04:57:37.501Z,77.20
2022-12-25T05:00:06.075Z,77.20
2022-12-25T05:02:33.175Z,77.20
2022-12-25T05:05:00.264Z,77.20
2022-12-25T05:07:27.165Z,77.40
2022-12-25T05:09:54.055Z,77.40
2022-12-25T05:12:20.912Z,77.50
2022-12-25T05:14:47.713Z,77.60
2022-12-25T05:17:14.544Z,77.60
2022-12-25T05:19:42.375Z,77.60
2022-12-25T05:22:09.708Z,77.60
2022-12-25T05:24:36.559Z,77.50
2022-12-25T05:27:03.415Z,77.60
2022-12-25T05:29:30.242Z,77.50
2022-12-25T05:31:57.068Z,77.50
2022-12-25T05:34:23.924Z,77.50
2022-12-25T05:36:50.704Z,77.60
2022-12-25T05:39:17.523Z,77.60
2022-12-25T05:41:44.439Z,77.60
2022-12-25T05:44:12.586Z,77.60
2022-12-25T05:46:39.581Z,77.60
2022-12-25T05:49:06.582Z,77.60
2022-12-25T05:51:33.610Z,77.50
2022-12-25T05:54:00.515Z,77.50
2022-12-25T05:56:27.464Z,77.50
2022-12-25T05:58:54.511Z,77.50
2022-12-25T06:01:26.690Z,77.60
2022-12-25T06:03:53.988Z,77.60
2022-12-25T06:06:20.813Z,77.50
2022-12-25T06:08:47.798Z,77.50
2022-12-25T06:11:15.554Z,77.50
2022-12-25T06:13:42.703Z,77.40
2022-12-25T06:16:11.522Z,77.50
2022-12-25T06:18:43.982Z,77.40
2022-12-25T06:21:12.792Z,77.40
2022-12-25T06:23:40.580Z,77.40
2022-12-25T06:26:10.377Z,77.40
2022-12-25T06:28:37.808Z,77.50
2022-12-25T06:31:09.353Z,77.50
2022-12-25T06:33:36.813Z,77.50
2022-12-25T06:36:13.669Z,77.50
2022-12-25T06:38:41.143Z,77.50
2022-12-25T06:41:13.566Z,77.50
2022-12-25T06:43:40.346Z,77.50
2022-12-25T06:46:10.424Z,77.60
2022-12-25T06:48:39.563Z,77.60
2022-12-25T06:51:06.996Z,77.60
2022-12-25T06:53:40.580Z,77.40
2022-12-25T06:56:15.433Z,77.40
2022-12-25T06:58:50.027Z,77.40
2022-12-25T07:01:25.364Z,77.50
2022-12-25T07:03:56.613Z,77.20
2022-12-25T07:06:23.793Z,77.30
2022-12-25T07:08:50.629Z,77.20
2022-12-25T07:11:17.957Z,77.20
2022-12-25T07:13:44.894Z,77.20
2022-12-25T07:16:13.282Z,77.00
2022-12-25T07:18:40.714Z,77.00
2022-12-25T07:21:12.959Z,76.90
2022-12-25T07:23:40.116Z,77.00
2022-12-25T07:26:07.278Z,77.00
2022-12-25T07:28:35.117Z,77.00
2022-12-25T07:31:07.595Z,77.00
2022-12-25T07:33:34.850Z,77.00
2022-12-25T07:36:02.367Z,77.00
2022-12-25T07:38:29.494Z,77.00
2022-12-25T07:40:56.699Z,77.00
2022-12-25T07:43:23.836Z,77.00
2022-12-25T07:45:55.926Z,77.00
2022-12-25T07:48:22.848Z,77.00
2022-12-25T07:50:54.993Z,77.00
2022-12-25T07:53:21.855Z,77.00
2022-12-25T07:55:48.606Z,77.00
2022-12-25T07:58:19.954Z,77.10
2022-12-25T08:00:50.167Z,77.10
2022-12-25T08:03:17.277Z,77.10
2022-12-25T08:05:44.207Z,77.10
2022-12-25T08:08:11.005Z,77.20
2022-12-25T08:10:37.930Z,77.40
2022-12-25T08:13:10.823Z,77.50
2022-12-25T08:15:41.192Z,77.60
2022-12-25T08:18:08.022Z,77.80
2022-12-25T08:20:35.795Z,77.90
2022-12-25T08:23:03.288Z,77.90
2022-12-25T08:25:30.165Z,78.00
2022-12-25T08:27:57.043Z,78.10
2022-12-25T08:30:23.880Z,78.00
2022-12-25T08:32:50.746Z,78.10
2022-12-25T08:35:17.675Z,78.10
2022-12-25T08:37:44.666Z,78.00
2022-12-25T08:40:11.964Z,78.00
2022-12-25T08:42:38.789Z,78.10
2022-12-25T08:45:06.895Z,78.10
2022-12-25T08:47:33.724Z,78.10
2022-12-25T08:50:00.604Z,78.10
2022-12-25T08:52:28.678Z,78.10
2022-12-25T08:54:56.400Z,78.10
2022-12-25T08:57:23.175Z,78.10
2022-12-25T08:59:50.014Z,78.10
2022-12-25T09:02:20.630Z,78.10
2022-12-25T09:04:47.771Z,78.10
2022-12-25T09:07:14.571Z,78.10
2022-12-25T09:09:43.503Z,78.10
2022-12-25T09:12:10.457Z,78.10
2022-12-25T09:14:37.501Z,78.00
2022-12-25T09:17:04.358Z,78.00
2022-12-25T09:19:31.521Z,78.00
2022-12-25T09:21:58.624Z,78.00
2022-12-25T09:24:25.555Z,78.00
2022-12-25T09:26:52.747Z,78.00
2022-12-25T09:29:19.646Z,78.00
2022-12-25T09:31:46.463Z,77.90
2022-12-25T09:34:18.997Z,78.00
2022-12-25T09:36:46.130Z,78.00
2022-12-25T09:39:13.038Z,78.00
2022-12-25T09:42:00.960Z,78.10
2022-12-25T09:44:51.370Z,78.30
2022-12-25T09:47:25.824Z,78.30
2022-12-25T09:50:01.482Z,78.40
2022-12-25T09:52:37.219Z,78.40
2022-12-25T09:55:08.360Z,78.50
2022-12-25T09:57:35.321Z,78.50
2022-12-25T10:00:02.451Z,78.40
2022-12-25T10:02:36.117Z,78.60
2022-12-25T10:05:13.217Z,78.70
2022-12-25T10:07:43.033Z,78.70
2022-12-25T10:10:24.667Z,78.70
2022-12-25T10:13:18.508Z,78.70
2022-12-25T10:15:55.567Z,78.90
2022-12-25T10:18:44.708Z,78.90
2022-12-25T10:21:15.975Z,79.00
2022-12-25T10:24:20.645Z,78.90
2022-12-25T10:26:48.849Z,79.00
2022-12-25T10:29:19.635Z,79.00
2022-12-25T10:31:48.870Z,79.00
2022-12-25T10:34:16.421Z,79.00
2022-12-25T10:36:45.569Z,78.90
2022-12-25T10:39:24.729Z,79.00
2022-12-25T10:42:13.367Z,79.10
2022-12-25T10:44:40.157Z,79.10
2022-12-25T10:47:06.994Z,79.00
2022-12-25T10:49:39.302Z,79.80
2022-12-25T10:52:49.316Z,79.10
2022-12-25T10:55:26.600Z,79.20
2022-12-25T10:57:55.739Z,79.10
2022-12-25T11:00:25.519Z,79.20
2022-12-25T11:02:52.912Z,79.20
2022-12-25T11:05:32.131Z,79.10
2022-12-25T11:08:02.227Z,79.30
2022-12-25T11:10:36.459Z,79.30
2022-12-25T11:13:07.537Z,79.30
2022-12-25T11:15:36.650Z,79.30
2022-12-25T11:18:25.233Z,79.30
2022-12-25T11:20:54.439Z,79.40
2022-12-25T11:23:23.592Z,79.30
2022-12-25T11:26:01.608Z,79.30
2022-12-25T11:28:30.957Z,79.50
2022-12-25T11:31:03.193Z,79.30
2022-12-25T11:33:36.660Z,79.50
2022-12-25T11:36:15.825Z,79.40
2022-12-25T11:38:42.704Z,79.50
2022-12-25T11:41:12.618Z,79.50
2022-12-25T11:43:49.322Z,79.70
2022-12-25T11:46:31.953Z,79.60
2022-12-25T11:49:05.448Z,79.70
2022-12-25T11:51:38.613Z,79.70
2022-12-25T11:54:27.876Z,79.80
2022-12-25T11:56:58.233Z,79.80
2022-12-25T11:59:31.332Z,79.70
2022-12-25T12:02:10.163Z,79.70
2022-12-25T12:04:43.460Z,79.70
2022-12-25T12:07:27.349Z,79.60
2022-12-25T12:10:40.614Z,79.70
2022-12-25T12:13:27.686Z,79.80
2022-12-25T12:15:57.012Z,79.80
2022-12-25T12:18:30.832Z,79.80
2022-12-25T12:21:03.463Z,79.80
2022-12-25T12:23:34.489Z,79.80
2022-12-25T12:26:01.888Z,79.80
2022-12-25T12:28:37.446Z,79.80
2022-12-25T12:31:07.094Z,79.80
2022-12-25T12:33:40.016Z,79.90
2022-12-25T12:36:10.776Z,79.80
2022-12-25T12:38:40.915Z,79.80
2022-12-25T12:41:08.900Z,79.80
2022-12-25T12:43:38.914Z,79.80
2022-12-25T12:46:30.990Z,79.70
2022-12-25T12:49:24.687Z,79.80
2022-12-25T12:52:06.893Z,79.80
2022-12-25T12:54:53.712Z,79.90
2022-12-25T12:57:27.158Z,79.80
2022-12-25T12:59:54.118Z,79.80
2022-12-25T13:02:36.532Z,79.80
2022-12-25T13:05:06.421Z,80.00
2022-12-25T13:07:53.996Z,79.80
2022-12-25T13:10:31.670Z,80.00
2022-12-25T13:13:06.856Z,79.90
2022-12-25T13:15:35.582Z,79.80
2022-12-25T13:18:06.888Z,79.80
2022-12-25T13:20:51.215Z,79.70
2022-12-25T13:23:32.430Z,79.80
2022-12-25T13:26:01.838Z,79.80
2022-12-25T13:28:29.909Z,80.60
2022-12-25T13:31:14.310Z,79.80
2022-12-25T13:33:46.275Z,79.80
2022-12-25T13:36:14.185Z,79.80
2022-12-25T13:38:50.738Z,79.80
2022-12-25T13:41:42.539Z,79.90
2022-12-25T13:44:18.521Z,79.80
2022-12-25T13:46:45.667Z,79.80
2022-12-25T13:49:18.418Z,79.80
2022-12-25T13:51:46.073Z,79.90
2022-12-25T13:54:14.903Z,79.90
2022-12-25T13:56:51.207Z,80.00
2022-12-25T13:59:23.285Z,80.00
2022-12-25T14:01:51.537Z,80.00
2022-12-25T14:04:22.164Z,80.00
2022-12-25T14:06:52.249Z,80.10
2022-12-25T14:09:19.710Z,80.10
2022-12-25T14:11:50.442Z,80.20
2022-12-25T14:14:24.942Z,80.30
2022-12-25T14:16:54.683Z,80.20
2022-12-25T14:19:31.775Z,80.20
2022-12-25T14:22:11.127Z,80.10
2022-12-25T14:24:40.125Z,80.10
2022-12-25T14:27:22.057Z,80.10
2022-12-25T14:29:50.533Z,80.10
2022-12-25T14:32:23.537Z,80.00
2022-12-25T14:34:56.860Z,80.10
2022-12-25T14:37:28.344Z,80.10
2022-12-25T14:40:06.459Z,80.10
2022-12-25T14:42:37.483Z,80.10
2022-12-25T14:45:26.343Z,80.00
2022-12-25T14:47:55.888Z,80.00
2022-12-25T14:50:44.058Z,80.00
2022-12-25T14:53:36.290Z,80.00
2022-12-25T14:56:03.666Z,80.00
2022-12-25T14:58:34.716Z,80.00
2022-12-25T15:01:04.266Z,80.00
2022-12-25T15:03:35.448Z,80.10
2022-12-25T15:06:04.615Z,80.10
2022-12-25T15:08:33.070Z,80.10
2022-12-25T15:11:02.671Z,80.20
2022-12-25T15:13:31.514Z,80.20
2022-12-25T15:16:16.782Z,80.10
2022-12-25T15:18:46.202Z,80.10
2022-12-25T15:21:30.796Z,80.10
2022-12-25T15:23:58.976Z,80.00
2022-12-25T15:26:27.476Z,80.10
2022-12-25T15:28:54.295Z,80.10
2022-12-25T15:31:31.158Z,80.10
2022-12-25T15:34:00.595Z,80.10
2022-12-25T15:36:28.002Z,80.10
2022-12-25T15:38:55.640Z,80.10
2022-12-25T15:41:54.319Z,80.10
2022-12-25T15:44:24.319Z,80.20
2022-12-25T15:46:51.918Z,80.10
2022-12-25T15:49:19.018Z,80.20
2022-12-25T15:51:46.068Z,80.10
2022-12-25T15:54:12.971Z,80.10
2022-12-25T15:56:46.749Z,80.10
2022-12-25T15:59:15.108Z,80.10
2022-12-25T16:01:46.368Z,80.10
2022-12-25T16:04:13.497Z,80.10
2022-12-25T16:06:40.548Z,80.10
2022-12-25T16:09:07.686Z,80.10
2022-12-25T16:11:34.530Z,80.10
2022-12-25T16:14:01.329Z,80.10
2022-12-25T16:16:28.346Z,80.10
2022-12-25T16:18:55.227Z,80.20
2022-12-25T16:21:23.051Z,80.20
2022-12-25T16:23:50.116Z,80.10
2022-12-25T16:26:17.001Z,80.20
2022-12-25T16:28:43.840Z,80.20
2022-12-25T16:31:12.033Z,80.30
2022-12-25T16:33:38.945Z,80.30
2022-12-25T16:36:06.207Z,80.30
2022-12-25T16:38:34.160Z,80.40
2022-12-25T16:41:04.607Z,80.50
2022-12-25T16:43:31.455Z,80.50
2022-12-25T16:45:58.507Z,80.50
2022-12-25T16:48:25.574Z,80.60
2022-12-25T16:50:52.473Z,80.90
2022-12-25T16:53:19.459Z,80.90
2022-12-25T16:55:46.301Z,80.90
2022-12-25T16:58:13.155Z,80.80
2022-12-25T17:00:44.243Z,80.90
2022-12-25T17:03:16.108Z,80.90
2022-12-25T17:05:43.072Z,80.90
2022-12-25T17:08:09.883Z,81.00
2022-12-25T17:10:39.177Z,81.00
2022-12-25T17:13:06.061Z,81.10
2022-12-25T17:15:32.870Z,81.10
2022-12-25T17:17:59.875Z,81.20
2022-12-25T17:20:26.680Z,81.10
2022-12-25T17:22:53.548Z,81.20
2022-12-25T17:25:20.405Z,81.30
2022-12-25T17:27:50.525Z,81.30
2022-12-25T17:30:17.447Z,81.40
2022-12-25T17:32:44.383Z,81.40
2022-12-25T17:35:11.195Z,81.30
2022-12-25T17:37:38.160Z,81.30
2022-12-25T17:40:05.384Z,81.30
2022-12-25T17:42:32.402Z,81.30
2022-12-25T17:44:59.331Z,81.30
2022-12-25T17:47:26.291Z,81.30
2022-12-25T17:49:53.105Z,81.30
2022-12-25T17:52:19.992Z,81.30
2022-12-25T17:54:46.819Z,81.30
2022-12-25T17:57:13.636Z,81.20
2022-12-25T17:59:40.637Z,81.20
2022-12-25T18:02:09.038Z,81.20
2022-12-25T18:04:36.370Z,81.30
2022-12-25T18:07:03.468Z,81.30
2022-12-25T18:09:30.602Z,81.40
2022-12-25T18:11:57.555Z,81.50
2022-12-25T18:14:24.392Z,81.40
2022-12-25T18:16:51.365Z,81.40
2022-12-25T18:19:19.654Z,81.50
2022-12-25T18:21:46.731Z,81.40
2022-12-25T18:24:13.666Z,81.50
2022-12-25T18:26:40.909Z,81.50
2022-12-25T18:29:07.837Z,81.50
2022-12-25T18:31:35.100Z,81.50
2022-12-25T18:34:04.748Z,81.40
2022-12-25T18:36:31.859Z,81.30
2022-12-25T18:38:59.155Z,81.30
2022-12-25T18:41:28.692Z,81.40
2022-12-25T18:43:56.255Z,81.40
2022-12-25T18:46:25.519Z,81.40
2022-12-25T18:48:54.849Z,81.40
2022-12-25T18:51:22.101Z,81.60
2022-12-25T18:53:48.984Z,81.50
2022-12-25T18:56:17.848Z,81.40
2022-12-25T18:58:46.794Z,81.60
2022-12-25T19:01:19.809Z,81.50
2022-12-25T19:03:48.841Z,81.50
2022-12-25T19:06:19.924Z,81.50
2022-12-25T19:08:47.116Z,81.50
2022-12-25T19:11:14.616Z,81.50
2022-12-25T19:13:41.396Z,81.60
2022-12-25T19:16:08.386Z,81.60
2022-12-25T19:18:35.311Z,81.80
2022-12-25T19:21:03.892Z,81.70
2022-12-25T19:23:31.276Z,81.80
2022-12-25T19:25:58.192Z,81.80
2022-12-25T19:28:25.202Z,81.70
2022-12-25T19:30:55.325Z,81.60
2022-12-25T19:33:32.281Z,81.50
2022-12-25T19:36:03.479Z,81.50
2022-12-25T19:38:30.700Z,81.40
2022-12-25T19:41:01.029Z,81.30
2022-12-25T19:43:33.854Z,81.40
2022-12-25T19:46:01.975Z,81.50
2022-12-25T19:48:30.176Z,81.50
2022-12-25T19:50:57.147Z,81.50
2022-12-25T19:53:24.645Z,81.50
2022-12-25T19:55:52.616Z,81.70
2022-12-25T19:58:23.717Z,81.80
2022-12-25T20:01:01.801Z,81.90
2022-12-25T20:03:28.887Z,82.00
2022-12-25T20:05:55.819Z,82.20
2022-12-25T20:08:23.219Z,82.30
2022-12-25T20:10:50.800Z,82.30
2022-12-25T20:13:17.947Z,82.40
2022-12-25T20:15:44.990Z,82.20
2022-12-25T20:18:11.782Z,82.20
2022-12-25T20:20:38.711Z,82.00
2022-12-25T20:23:05.944Z,82.00
2022-12-25T20:25:32.999Z,81.90
2022-12-25T20:27:59.836Z,81.90
2022-12-25T20:30:26.657Z,81.90
2022-12-25T20:32:53.594Z,82.00
2022-12-25T20:35:20.488Z,82.20
2022-12-25T20:37:47.401Z,82.20
2022-12-25T20:40:14.229Z,82.10
2022-12-25T20:42:41.173Z,82.10
2022-12-25T20:45:08.291Z,82.10
2022-12-25T20:47:35.593Z,82.10
2022-12-25T20:50:02.749Z,82.00
2022-12-25T20:52:29.584Z,81.90
2022-12-25T20:54:56.415Z,82.00
2022-12-25T20:57:23.232Z,82.00
2022-12-25T20:59:50.056Z,82.00
2022-12-25T21:02:34.263Z,82.80
2022-12-25T21:05:02.325Z,82.10
2022-12-25T21:07:29.309Z,82.00
2022-12-25T21:09:58.572Z,82.00
2022-12-25T21:12:26.283Z,82.00
2022-12-25T21:14:53.207Z,82.00
2022-12-25T21:17:20.313Z,81.90
2022-12-25T21:19:47.203Z,81.90
2022-12-25T21:22:14.252Z,82.00
2022-12-25T21:24:41.078Z,82.00
2022-12-25T21:27:07.862Z,82.00
2022-12-25T21:29:34.738Z,82.00
2022-12-25T21:32:20.165Z,82.00
2022-12-25T21:34:47.058Z,82.00
2022-12-25T21:37:13.867Z,82.00
2022-12-25T21:39:40.738Z,81.90
2022-12-25T21:42:07.711Z,82.00
2022-12-25T21:44:34.625Z,82.10
2022-12-25T21:47:01.467Z,82.20
2022-12-25T21:49:47.056Z,82.20
2022-12-25T21:52:13.867Z,82.30
2022-12-25T21:54:40.895Z,82.50
2022-12-25T21:57:07.704Z,82.50
2022-12-25T21:59:34.571Z,82.60
2022-12-25T22:02:01.595Z,82.60
2022-12-25T22:04:28.923Z,82.80
2022-12-25T22:07:14.282Z,83.00
2022-12-25T22:09:47.314Z,82.80
2022-12-25T22:12:34.717Z,82.90
2022-12-25T22:15:06.078Z,82.70
2022-12-25T22:17:59.494Z,82.80
2022-12-25T22:20:37.079Z,82.80
2022-12-25T22:23:04.520Z,82.80
2022-12-25T22:25:31.356Z,82.90
2022-12-25T22:27:58.527Z,82.80
2022-12-25T22:30:29.264Z,82.90
2022-12-25T22:32:56.655Z,82.90
2022-12-25T22:35:23.853Z,82.80
2022-12-25T22:37:51.296Z,83.00
2022-12-25T22:40:20.160Z,83.00
2022-12-25T22:42:47.349Z,83.10
2022-12-25T22:45:14.643Z,82.90
2022-12-25T22:47:41.735Z,82.90
2022-12-25T22:50:09.637Z,82.70
2022-12-25T22:52:37.063Z,82.60
2022-12-25T22:55:05.672Z,82.60
2022-12-25T22:57:32.509Z,82.50
2022-12-25T22:59:59.471Z,82.60
2022-12-25T23:02:26.818Z,82.60
2022-12-25T23:04:53.918Z,82.60
2022-12-25T23:07:20.708Z,82.50
2022-12-25T23:09:47.754Z,82.60
2022-12-25T23:12:33.082Z,82.50
2022-12-25T23:14:59.984Z,82.30
2022-12-25T23:17:45.721Z,82.10
2022-12-25T23:20:33.377Z,82.00
2022-12-25T23:23:19.235Z,82.10
2022-12-25T23:26:04.910Z,82.10
2022-12-25T23:29:04.109Z,82.00
2022-12-25T23:31:41.421Z,82.00
2022-12-25T23:34:09.324Z,81.90
2022-12-25T23:36:36.566Z,81.90
2022-12-25T23:39:09.706Z,81.80
2022-12-25T23:41:39.190Z,81.70
2022-12-25T23:44:06.549Z,81.70
2022-12-25T23:46:33.627Z,81.60
2022-12-25T23:49:00.512Z,81.50
2022-12-25T23:51:27.524Z,81.50
2022-12-25T23:53:54.503Z,81.60
2022-12-25T23:56:21.714Z,81.80
2022-12-25T23:58:52.062Z,81.80
